createdAt,value
2016-03-20T00:01:50.229Z,1
2016-03-20T00:04:51.253Z,1
2016-03-20T00:08:03.247Z,1
2016-03-20T00:11:13.553Z,1
2016-03-20T00:14:25.529Z,1
2016-03-20T00:17:41.866Z,0
2016-03-20T00:20:48.999Z,0
2016-03-20T00:23:50.007Z,0
2016-03-20T00:27:01.893Z,0
2016-03-20T00:30:13.667Z,0
2016-03-20T00:33:25.862Z,0
2016-03-20T00:36:43.917Z,0
2016-03-20T00:39:44.988Z,0
2016-03-20T00:42:56.967Z,0
2016-03-20T00:46:08.803Z,0
2016-03-20T00:49:20.640Z,0
2016-03-20T00:52:31.523Z,0
2016-03-20T00:55:47.249Z,0
2016-03-20T00:58:48.210Z,0
2016-03-20T01:01:57.237Z,0
2016-03-20T01:05:08.870Z,0
2016-03-20T01:08:20.925Z,0
2016-03-20T01:11:32.964Z,0
2016-03-20T01:14:44.800Z,0
2016-03-20T01:17:53.171Z,0
2016-03-20T01:21:04.397Z,0
2016-03-20T01:24:13.562Z,0
2016-03-20T01:27:25.773Z,0
2016-03-20T01:30:41.516Z,0
2016-03-20T01:33:48.555Z,0
2016-03-20T01:36:49.344Z,0
2016-03-20T01:39:58.621Z,0
2016-03-20T01:43:07.597Z,0
2016-03-20T01:46:19.730Z,0
2016-03-20T01:49:31.816Z,0
2016-03-20T01:52:48.450Z,0
2016-03-20T01:55:49.380Z,0
2016-03-20T01:59:01.281Z,0
2016-03-20T02:02:13.679Z,0
2016-03-20T02:05:23.657Z,0
2016-03-20T02:08:34.211Z,0
2016-03-20T02:11:49.032Z,0
2016-03-20T02:14:50.009Z,0
2016-03-20T02:17:59.597Z,0
2016-03-20T02:21:11.683Z,0
2016-03-20T02:24:23.708Z,0
2016-03-20T02:27:33.794Z,0
2016-03-20T02:30:48.990Z,0
2016-03-20T02:33:49.810Z,0
2016-03-20T02:37:01.134Z,0
2016-03-20T02:40:10.626Z,0
2016-03-20T02:43:22.477Z,0
2016-03-20T02:46:34.172Z,0
2016-03-20T02:49:48.978Z,0
2016-03-20T02:52:49.939Z,0
2016-03-20T02:55:59.169Z,0
2016-03-20T02:59:11.301Z,0
2016-03-20T03:02:20.653Z,0
2016-03-20T03:05:30.552Z,0
2016-03-20T03:08:46.802Z,0
2016-03-20T03:11:46.653Z,0
2016-03-20T03:14:58.321Z,0
2016-03-20T03:18:06.625Z,0
2016-03-20T03:21:18.368Z,0
2016-03-20T03:24:28.345Z,0
2016-03-20T03:27:46.118Z,0
2016-03-20T03:30:46.861Z,0
2016-03-20T03:33:56.119Z,0
2016-03-20T03:37:07.848Z,0
2016-03-20T03:40:17.433Z,0
2016-03-20T03:43:26.427Z,0
2016-03-20T03:46:41.419Z,0
2016-03-20T03:49:48.318Z,0
2016-03-20T03:52:49.217Z,0
2016-03-20T03:55:57.134Z,0
2016-03-20T03:59:05.610Z,0
2016-03-20T04:02:17.384Z,0
2016-03-20T04:05:28.569Z,0
2016-03-20T04:08:43.686Z,0
2016-03-20T04:11:50.539Z,0
2016-03-20T04:14:53.578Z,0
2016-03-20T04:18:03.010Z,0
2016-03-20T04:21:14.956Z,0
2016-03-20T04:24:26.932Z,0
2016-03-20T04:27:44.868Z,0
2016-03-20T04:30:45.697Z,0
2016-03-20T04:33:54.447Z,0
2016-03-20T04:37:06.396Z,0
2016-03-20T04:40:17.883Z,0
2016-03-20T04:43:29.592Z,1
2016-03-20T04:46:47.378Z,2
2016-03-20T04:49:48.198Z,3
2016-03-20T04:52:58.428Z,4
2016-03-20T04:56:10.203Z,9
2016-03-20T04:59:20.320Z,12
2016-03-20T05:02:32.094Z,21
2016-03-20T05:05:47.649Z,27
2016-03-20T05:08:48.453Z,35
2016-03-20T05:12:00.635Z,47
2016-03-20T05:15:12.534Z,60
2016-03-20T05:18:24.292Z,77
2016-03-20T05:21:33.301Z,87
2016-03-20T05:24:45.090Z,103
2016-03-20T05:27:54.644Z,110
2016-03-20T05:31:04.796Z,120
2016-03-20T05:34:13.491Z,169
2016-03-20T05:37:25.484Z,184
2016-03-20T05:40:43.382Z,214
2016-03-20T05:43:50.125Z,213
2016-03-20T05:46:50.836Z,227
2016-03-20T05:50:02.426Z,249
2016-03-20T05:53:10.809Z,242
2016-03-20T05:56:22.300Z,258
2016-03-20T05:59:34.262Z,316
2016-03-20T06:02:45.880Z,328
2016-03-20T06:05:57.668Z,342
2016-03-20T06:09:08.992Z,314
2016-03-20T06:12:20.812Z,339
2016-03-20T06:15:32.696Z,385
2016-03-20T06:18:50.548Z,394
2016-03-20T06:21:51.040Z,423
2016-03-20T06:25:03.034Z,418
2016-03-20T06:28:14.808Z,469
2016-03-20T06:31:24.442Z,502
2016-03-20T06:34:42.341Z,544
2016-03-20T06:37:49.301Z,573
2016-03-20T06:40:50.216Z,648
2016-03-20T06:44:01.852Z,651
2016-03-20T06:47:13.594Z,613
2016-03-20T06:50:25.320Z,647
2016-03-20T06:53:43.017Z,690
2016-03-20T06:56:49.853Z,742
2016-03-20T06:59:50.548Z,873
2016-03-20T07:03:00.841Z,802
2016-03-20T07:06:12.583Z,896
2016-03-20T07:09:24.653Z,937
2016-03-20T07:12:42.099Z,1040
2016-03-20T07:15:49.107Z,1109
2016-03-20T07:18:49.974Z,1110
2016-03-20T07:21:58.201Z,1201
2016-03-20T07:25:09.790Z,1377
2016-03-20T07:28:19.673Z,1096
2016-03-20T07:31:31.478Z,1250
2016-03-20T07:34:48.611Z,1468
2016-03-20T07:37:49.591Z,1600
2016-03-20T07:40:59.567Z,1245
2016-03-20T07:44:09.188Z,1143
2016-03-20T07:47:20.586Z,1279
2016-03-20T07:50:29.766Z,1457
2016-03-20T07:53:47.791Z,1285
2016-03-20T07:56:48.893Z,1158
2016-03-20T08:00:00.978Z,1382
2016-03-20T08:03:12.739Z,1559
2016-03-20T08:06:25.028Z,1396
2016-03-20T08:09:42.927Z,1673
2016-03-20T08:12:50.075Z,1585
2016-03-20T08:15:51.005Z,1659
2016-03-20T08:19:02.876Z,1690
2016-03-20T08:22:13.430Z,2285
2016-03-20T08:25:25.517Z,1574
2016-03-20T08:28:43.619Z,1817
2016-03-20T08:31:50.548Z,2311
2016-03-20T08:34:51.650Z,1984
2016-03-20T08:38:00.753Z,1881
2016-03-20T08:41:10.341Z,1789
2016-03-20T08:44:22.443Z,1743
2016-03-20T08:47:34.372Z,1792
2016-03-20T08:50:46.271Z,2840
2016-03-20T08:53:58.326Z,2422
2016-03-20T08:57:10.415Z,2074
2016-03-20T09:00:22.767Z,2784
2016-03-20T09:03:34.838Z,2297
2016-03-20T09:06:50.548Z,2535
2016-03-20T09:09:51.572Z,2194
2016-03-20T09:13:03.536Z,2667
2016-03-20T09:16:12.919Z,2274
2016-03-20T09:19:24.130Z,1856
2016-03-20T09:22:34.263Z,1636
2016-03-20T09:25:45.412Z,2531
2016-03-20T09:28:57.311Z,1554
2016-03-20T09:32:07.088Z,1445
2016-03-20T09:35:16.986Z,2069
2016-03-20T09:38:29.042Z,1925
2016-03-20T09:41:47.018Z,1886
2016-03-20T09:44:47.964Z,2366
2016-03-20T09:47:59.800Z,3285
2016-03-20T09:51:11.827Z,3100
2016-03-20T09:54:23.850Z,2596
2016-03-20T09:57:34.046Z,2902
2016-03-20T10:00:49.615Z,2293
2016-03-20T10:03:50.468Z,1921
2016-03-20T10:06:59.992Z,2538
2016-03-20T10:10:09.612Z,2572
2016-03-20T10:13:21.589Z,3362
2016-03-20T10:16:33.705Z,3259
2016-03-20T10:19:48.885Z,4356
2016-03-20T10:22:49.894Z,3927
2016-03-20T10:26:01.902Z,3537
2016-03-20T10:29:11.819Z,2847
2016-03-20T10:32:21.140Z,3312
2016-03-20T10:35:31.335Z,3026
2016-03-20T10:38:49.343Z,3332
2016-03-20T10:41:50.398Z,4475
2016-03-20T10:44:59.828Z,3976
2016-03-20T10:48:11.745Z,3945
2016-03-20T10:51:23.769Z,3548
2016-03-20T10:54:41.886Z,2953
2016-03-20T10:57:48.941Z,2757
2016-03-20T11:00:50.215Z,3374
2016-03-20T11:04:01.926Z,2754
2016-03-20T11:07:13.889Z,3645
2016-03-20T11:10:23.804Z,3960
2016-03-20T11:13:41.797Z,2181
2016-03-20T11:16:48.867Z,3523
2016-03-20T11:19:49.828Z,2974
2016-03-20T11:23:01.805Z,2959
2016-03-20T11:26:11.707Z,4937
2016-03-20T11:29:23.777Z,3956
2016-03-20T11:32:41.629Z,2777
2016-03-20T11:35:48.778Z,1470
2016-03-20T11:38:49.817Z,1377
2016-03-20T11:42:01.950Z,1694
2016-03-20T11:45:13.930Z,1662
2016-03-20T11:48:23.266Z,1947
2016-03-20T11:51:32.852Z,1770
2016-03-20T11:54:49.422Z,2172
2016-03-20T11:57:50.477Z,2811
2016-03-20T12:01:02.439Z,2908
2016-03-20T12:04:11.606Z,5054
2016-03-20T12:07:23.551Z,4409
2016-03-20T12:10:35.575Z,4103
2016-03-20T12:13:47.584Z,3436
2016-03-20T12:16:57.294Z,2918
2016-03-20T12:20:08.521Z,4400
2016-03-20T12:23:19.313Z,4101
2016-03-20T12:26:27.994Z,4822
2016-03-20T12:29:45.924Z,3809
2016-03-20T12:32:46.978Z,4982
2016-03-20T12:35:56.627Z,3749
2016-03-20T12:39:05.026Z,3430
2016-03-20T12:42:14.365Z,4345
2016-03-20T12:45:26.372Z,4503
2016-03-20T12:48:37.521Z,3840
2016-03-20T12:51:52.092Z,5735
2016-03-20T12:54:53.428Z,3455
2016-03-20T12:58:03.951Z,3835
2016-03-20T13:01:14.165Z,4829
2016-03-20T13:04:23.579Z,4348
2016-03-20T13:07:35.743Z,5576
2016-03-20T13:10:47.799Z,3988
2016-03-20T13:13:57.338Z,4355
2016-03-20T13:17:07.331Z,3794
2016-03-20T13:20:19.389Z,4453
2016-03-20T13:23:28.615Z,5249
2016-03-20T13:26:46.280Z,6279
2016-03-20T13:29:47.631Z,5044
2016-03-20T13:32:59.922Z,5073
2016-03-20T13:36:12.229Z,3093
2016-03-20T13:39:24.497Z,3317
2016-03-20T13:42:42.614Z,4674
2016-03-20T13:45:49.883Z,5005
2016-03-20T13:48:51.105Z,5303
2016-03-20T13:52:03.032Z,4396
2016-03-20T13:55:15.118Z,1912
2016-03-20T13:58:29.424Z,2543
2016-03-20T14:01:44.853Z,4460
2016-03-20T14:04:52.050Z,2552
2016-03-20T14:07:53.182Z,4906
2016-03-20T14:11:03.706Z,4224
2016-03-20T14:14:16.010Z,4312
2016-03-20T14:17:25.146Z,4777
2016-03-20T14:20:36.295Z,4369
2016-03-20T14:23:48.178Z,2713
2016-03-20T14:27:00.389Z,3077
2016-03-20T14:30:09.647Z,3371
2016-03-20T14:33:19.156Z,2557
2016-03-20T14:36:28.838Z,2237
2016-03-20T14:39:45.940Z,1782
2016-03-20T14:42:47.277Z,1687
2016-03-20T14:45:59.707Z,1351
2016-03-20T14:49:11.949Z,1196
2016-03-20T14:52:23.975Z,966
2016-03-20T14:55:35.467Z,1182
2016-03-20T14:58:51.695Z,614
2016-03-20T15:01:52.922Z,1453
2016-03-20T15:05:05.163Z,2223
2016-03-20T15:08:16.687Z,2227
2016-03-20T15:11:27.198Z,1726
2016-03-20T15:14:45.534Z,1268
2016-03-20T15:17:46.604Z,804
2016-03-20T15:20:58.690Z,1331
2016-03-20T15:24:07.356Z,1245
2016-03-20T15:27:18.911Z,1016
2016-03-20T15:30:30.202Z,848
2016-03-20T15:33:47.975Z,725
2016-03-20T15:36:51.250Z,1239
2016-03-20T15:40:01.242Z,1443
2016-03-20T15:43:11.484Z,1343
2016-03-20T15:46:23.464Z,1616
2016-03-20T15:49:33.550Z,1237
2016-03-20T15:52:50.699Z,989
2016-03-20T15:55:51.847Z,907
2016-03-20T15:59:04.136Z,650
2016-03-20T16:02:14.708Z,545
2016-03-20T16:05:26.671Z,578
2016-03-20T16:08:36.444Z,639
2016-03-20T16:11:46.562Z,505
2016-03-20T16:14:58.196Z,298
2016-03-20T16:18:09.860Z,537
2016-03-20T16:21:21.227Z,542
2016-03-20T16:24:33.222Z,543
2016-03-20T16:27:51.168Z,549
2016-03-20T16:30:52.129Z,480
2016-03-20T16:34:02.480Z,359
2016-03-20T16:37:13.754Z,202
2016-03-20T16:40:24.828Z,251
2016-03-20T16:43:35.727Z,284
2016-03-20T16:46:47.921Z,255
2016-03-20T16:49:57.539Z,274
2016-03-20T16:53:09.595Z,209
2016-03-20T16:56:17.759Z,169
2016-03-20T16:59:27.285Z,124
2016-03-20T17:02:35.980Z,105
2016-03-20T17:05:47.816Z,80
2016-03-20T17:08:59.022Z,61
2016-03-20T17:12:10.431Z,37
2016-03-20T17:15:20.987Z,25
2016-03-20T17:18:32.310Z,27
2016-03-20T17:21:50.178Z,33
2016-03-20T17:24:51.311Z,26
2016-03-20T17:28:01.786Z,14
2016-03-20T17:31:13.747Z,5
2016-03-20T17:34:23.506Z,2
2016-03-20T17:37:33.126Z,2
2016-03-20T17:40:51.010Z,2
2016-03-20T17:43:52.096Z,1
2016-03-20T17:47:03.932Z,1
2016-03-20T17:50:15.503Z,1
2016-03-20T17:53:27.606Z,1
2016-03-20T17:56:45.678Z,1
2016-03-20T17:59:46.842Z,1
2016-03-20T18:02:58.991Z,1
2016-03-20T18:06:10.686Z,1
2016-03-20T18:09:22.913Z,1
2016-03-20T18:12:34.830Z,1
2016-03-20T18:15:50.651Z,1
2016-03-20T18:18:51.784Z,1
2016-03-20T18:22:03.729Z,1
2016-03-20T18:25:14.112Z,1
2016-03-20T18:28:24.700Z,1
2016-03-20T18:31:34.537Z,1
2016-03-20T18:34:49.717Z,1
2016-03-20T18:37:50.772Z,1
2016-03-20T18:40:59.796Z,1
2016-03-20T18:44:09.991Z,1
2016-03-20T18:47:17.046Z,1
2016-03-20T18:50:27.604Z,1
2016-03-20T18:53:43.675Z,1
2016-03-20T18:56:50.886Z,1
2016-03-20T18:59:51.832Z,1
2016-03-20T19:02:59.027Z,1
2016-03-20T19:06:10.816Z,1
2016-03-20T19:09:17.656Z,1
2016-03-20T19:12:25.651Z,1
2016-03-20T19:15:34.066Z,1
2016-03-20T19:18:49.714Z,1
2016-03-20T19:21:50.614Z,1
2016-03-20T19:24:59.106Z,1
2016-03-20T19:28:10.816Z,1
2016-03-20T19:31:25.515Z,1
2016-03-20T19:34:33.539Z,1
2016-03-20T19:37:51.376Z,1
2016-03-20T19:40:52.304Z,1
2016-03-20T19:44:03.708Z,1
2016-03-20T19:47:15.185Z,1
2016-03-20T19:50:26.273Z,1
2016-03-20T19:53:44.203Z,1
2016-03-20T19:56:51.102Z,1
2016-03-20T19:59:51.985Z,1
2016-03-20T20:03:03.680Z,1
2016-03-20T20:06:13.329Z,1
2016-03-20T20:09:21.680Z,1
2016-03-20T20:12:31.567Z,1
2016-03-20T20:15:49.480Z,1
2016-03-20T20:18:50.285Z,1
2016-03-20T20:22:01.966Z,1
2016-03-20T20:25:13.755Z,1
2016-03-20T20:28:25.719Z,1
2016-03-20T20:31:35.039Z,1
2016-03-20T20:34:52.126Z,1
2016-03-20T20:37:53.043Z,1
2016-03-20T20:41:03.661Z,1
2016-03-20T20:44:15.294Z,1
2016-03-20T20:47:25.960Z,1
2016-03-20T20:50:33.343Z,1
2016-03-20T20:53:50.523Z,1
2016-03-20T20:56:51.407Z,1
2016-03-20T21:00:00.837Z,1
2016-03-20T21:03:10.282Z,1
2016-03-20T21:06:20.852Z,1
2016-03-20T21:09:32.348Z,1
2016-03-20T21:12:48.200Z,1
2016-03-20T21:15:48.989Z,1
2016-03-20T21:18:59.528Z,1
2016-03-20T21:22:06.927Z,1
2016-03-20T21:25:15.763Z,1
2016-03-20T21:28:23.459Z,1
2016-03-20T21:31:33.313Z,1
2016-03-20T21:34:50.165Z,1
2016-03-20T21:37:50.361Z,1
2016-03-20T21:41:00.572Z,1
2016-03-20T21:44:08.705Z,1
2016-03-20T21:47:20.291Z,1
2016-03-20T21:50:30.143Z,1
2016-03-20T21:53:47.451Z,1
2016-03-20T21:56:48.084Z,1
2016-03-20T21:59:58.545Z,1
2016-03-20T22:03:07.663Z,0
2016-03-20T22:06:16.312Z,0
2016-03-20T22:09:25.772Z,0
2016-03-20T22:12:37.502Z,0
2016-03-20T22:15:49.229Z,0
2016-03-20T22:19:00.502Z,0
2016-03-20T22:22:10.354Z,0
2016-03-20T22:25:20.597Z,0
2016-03-20T22:28:29.605Z,0
2016-03-20T22:31:46.007Z,0
2016-03-20T22:34:52.607Z,0
2016-03-20T22:37:53.162Z,0
2016-03-20T22:41:04.226Z,0
2016-03-20T22:44:15.453Z,0
2016-03-20T22:47:26.965Z,0
2016-03-20T22:50:44.465Z,0
2016-03-20T22:53:51.219Z,0
2016-03-20T22:56:51.881Z,0
2016-03-20T23:00:03.655Z,0
2016-03-20T23:03:12.632Z,0
2016-03-20T23:06:21.797Z,0
2016-03-20T23:09:33.257Z,0
2016-03-20T23:12:51.127Z,0
2016-03-20T23:15:51.824Z,0
2016-03-20T23:19:01.190Z,0
2016-03-20T23:22:12.995Z,0
2016-03-20T23:25:24.769Z,0
2016-03-20T23:28:35.952Z,0
2016-03-20T23:31:53.069Z,0
2016-03-20T23:34:53.780Z,0
2016-03-20T23:38:05.491Z,0
2016-03-20T23:41:17.124Z,0
2016-03-20T23:44:28.664Z,0
2016-03-20T23:47:46.237Z,0
2016-03-20T23:50:53.026Z,0
2016-03-20T23:53:53.706Z,0
2016-03-20T23:57:03.840Z,0
